createdAt,value
2022-08-26T00:01:57.789Z,20.40
2022-08-26T00:04:26.655Z,20.45
2022-08-26T00:06:55.897Z,20.39
2022-08-26T00:09:25.474Z,20.41
2022-08-26T00:11:54.233Z,20.41
2022-08-26T00:14:24.163Z,20.37
2022-08-26T00:16:55.997Z,20.37
2022-08-26T00:19:23.996Z,20.34
2022-08-26T00:21:51.632Z,20.23
2022-08-26T00:24:21.064Z,20.31
2022-08-26T00:26:50.022Z,20.32
2022-08-26T00:29:19.329Z,20.30
2022-08-26T00:31:48.803Z,20.35
2022-08-26T00:34:19.611Z,20.39
2022-08-26T00:36:47.746Z,20.29
2022-08-26T00:39:19.937Z,20.33
2022-08-26T00:41:48.289Z,20.32
2022-08-26T00:44:16.076Z,20.32
2022-08-26T00:46:47.288Z,20.33
2022-08-26T00:49:20.771Z,20.30
2022-08-26T00:51:52.597Z,20.30
2022-08-26T00:54:23.844Z,20.30
2022-08-26T00:57:16.317Z,20.27
2022-08-26T00:59:47.775Z,20.23
2022-08-26T01:02:21.304Z,20.19
2022-08-26T01:04:54.410Z,20.21
2022-08-26T01:07:25.659Z,20.26
2022-08-26T01:09:53.199Z,20.28
2022-08-26T01:12:22.713Z,20.19
2022-08-26T01:14:50.743Z,20.25
2022-08-26T01:17:18.569Z,20.25
2022-08-26T01:19:51.738Z,20.19
2022-08-26T01:22:32.189Z,20.18
2022-08-26T01:25:04.225Z,20.17
2022-08-26T01:27:32.965Z,20.19
2022-08-26T01:30:03.170Z,20.14
2022-08-26T01:32:33.799Z,20.12
2022-08-26T01:35:02.081Z,20.10
2022-08-26T01:37:36.500Z,20.04
2022-08-26T01:40:10.624Z,20.07
2022-08-26T01:42:38.189Z,20.08
2022-08-26T01:45:15.901Z,20.06
2022-08-26T01:47:44.188Z,20.08
2022-08-26T01:50:27.641Z,20.04
2022-08-26T01:53:00.427Z,20.05
2022-08-26T01:55:33.160Z,20.09
2022-08-26T01:58:06.359Z,19.93
2022-08-26T02:00:36.332Z,20.11
2022-08-26T02:03:19.024Z,20.09
2022-08-26T02:05:53.440Z,20.08
2022-08-26T02:08:33.030Z,20.01
2022-08-26T02:11:00.525Z,19.97
2022-08-26T02:13:31.718Z,19.94
2022-08-26T02:16:01.750Z,19.85
2022-08-26T02:18:33.665Z,19.99
2022-08-26T02:21:01.798Z,19.99
2022-08-26T02:23:29.532Z,19.86
2022-08-26T02:26:27.193Z,19.76
2022-08-26T02:29:01.326Z,19.66
2022-08-26T02:31:28.882Z,19.61
2022-08-26T02:33:56.362Z,19.49
2022-08-26T02:36:28.674Z,19.48
2022-08-26T02:38:56.385Z,19.39
2022-08-26T02:41:24.227Z,19.34
2022-08-26T02:43:52.217Z,19.38
2022-08-26T02:46:28.005Z,19.35
2022-08-26T02:48:58.190Z,19.35
2022-08-26T02:51:26.041Z,19.32
2022-08-26T02:53:53.701Z,19.36
2022-08-26T02:56:21.274Z,19.39
2022-08-26T02:58:49.128Z,19.35
2022-08-26T03:01:25.766Z,19.33
2022-08-26T03:03:54.321Z,19.33
2022-08-26T03:06:22.076Z,19.39
2022-08-26T03:08:50.655Z,19.40
2022-08-26T03:11:19.857Z,19.35
2022-08-26T03:13:47.415Z,19.36
2022-08-26T03:16:15.362Z,19.43
2022-08-26T03:18:43.496Z,19.42
2022-08-26T03:21:20.905Z,19.45
2022-08-26T03:23:49.672Z,19.42
2022-08-26T03:26:17.594Z,19.39
2022-08-26T03:28:59.080Z,19.48
2022-08-26T03:31:26.787Z,19.46
2022-08-26T03:33:57.645Z,19.47
2022-08-26T03:36:27.656Z,19.51
2022-08-26T03:38:55.169Z,19.52
2022-08-26T03:41:23.433Z,19.52
2022-08-26T03:43:50.973Z,19.45
2022-08-26T03:46:20.499Z,19.45
2022-08-26T03:48:48.802Z,19.40
2022-08-26T03:51:20.312Z,19.38
2022-08-26T03:53:48.708Z,19.41
2022-08-26T03:56:16.250Z,19.42
2022-08-26T03:58:44.914Z,19.42
2022-08-26T04:01:16.172Z,19.39
2022-08-26T04:04:00.240Z,19.37
2022-08-26T04:06:43.276Z,19.36
2022-08-26T04:09:18.757Z,19.42
2022-08-26T04:11:50.620Z,19.22
2022-08-26T04:14:21.043Z,19.30
2022-08-26T04:16:49.225Z,19.24
2022-08-26T04:19:17.785Z,19.28
2022-08-26T04:21:46.586Z,19.15
2022-08-26T04:24:17.656Z,19.19
2022-08-26T04:26:45.405Z,19.28
2022-08-26T04:29:19.102Z,19.26
2022-08-26T04:31:48.041Z,19.29
2022-08-26T04:34:16.181Z,19.19
2022-08-26T04:36:44.632Z,19.26
2022-08-26T04:39:16.568Z,19.28
2022-08-26T04:41:46.209Z,19.32
2022-08-26T04:44:14.417Z,19.33
2022-08-26T04:46:43.921Z,19.40
2022-08-26T04:49:12.187Z,19.37
2022-08-26T04:51:40.947Z,19.32
2022-08-26T04:54:08.650Z,19.37
2022-08-26T04:56:42.505Z,19.38
2022-08-26T04:59:16.540Z,19.39
2022-08-26T05:01:52.419Z,19.31
2022-08-26T05:04:22.013Z,19.40
2022-08-26T05:06:50.498Z,19.39
2022-08-26T05:09:20.072Z,19.38
2022-08-26T05:11:48.514Z,19.40
2022-08-26T05:14:19.743Z,19.35
2022-08-26T05:16:47.796Z,19.30
2022-08-26T05:19:19.028Z,19.29
2022-08-26T05:21:47.753Z,19.20
2022-08-26T05:24:15.486Z,19.22
2022-08-26T05:26:44.629Z,19.16
2022-08-26T05:29:12.551Z,19.16
2022-08-26T05:31:40.153Z,19.18
2022-08-26T05:34:08.435Z,19.13
2022-08-26T05:36:37.249Z,19.15
2022-08-26T05:39:07.566Z,19.18
2022-08-26T05:41:41.054Z,19.18
2022-08-26T05:44:12.673Z,19.19
2022-08-26T05:46:44.687Z,19.25
2022-08-26T05:49:14.034Z,19.31
2022-08-26T05:51:47.478Z,19.39
2022-08-26T05:54:21.931Z,19.42
2022-08-26T05:56:50.082Z,19.44
2022-08-26T05:59:21.376Z,19.39
2022-08-26T06:01:52.863Z,19.45
2022-08-26T06:04:20.643Z,19.51
2022-08-26T06:06:48.533Z,19.50
2022-08-26T06:09:17.456Z,19.56
2022-08-26T06:11:46.117Z,19.63
2022-08-26T06:14:13.627Z,19.54
2022-08-26T06:16:43.781Z,19.65
2022-08-26T06:19:15.404Z,19.79
2022-08-26T06:21:46.257Z,19.80
2022-08-26T06:24:32.557Z,19.90
2022-08-26T06:27:04.653Z,19.86
2022-08-26T06:29:36.248Z,20.05
2022-08-26T06:32:05.757Z,20.12
2022-08-26T06:34:33.744Z,20.17
2022-08-26T06:37:03.403Z,20.17
2022-08-26T06:39:32.008Z,20.22
2022-08-26T06:42:03.033Z,20.31
2022-08-26T06:44:31.077Z,20.39
2022-08-26T06:47:00.243Z,20.36
2022-08-26T06:49:28.314Z,20.34
2022-08-26T06:51:58.826Z,20.43
2022-08-26T06:54:28.447Z,20.43
2022-08-26T06:56:56.872Z,20.46
2022-08-26T06:59:25.048Z,20.48
2022-08-26T07:01:53.484Z,20.51
2022-08-26T07:04:23.069Z,20.37
2022-08-26T07:06:52.504Z,20.51
2022-08-26T07:09:22.781Z,20.42
2022-08-26T07:11:51.281Z,20.47
2022-08-26T07:14:21.180Z,20.46
2022-08-26T07:16:50.472Z,20.52
2022-08-26T07:19:31.171Z,20.41
2022-08-26T07:22:04.318Z,20.20
2022-08-26T07:24:35.109Z,20.29
2022-08-26T07:27:05.812Z,20.29
2022-08-26T07:29:33.892Z,20.20
2022-08-26T07:32:01.661Z,20.28
2022-08-26T07:34:29.397Z,20.31
2022-08-26T07:36:58.852Z,20.31
2022-08-26T07:39:27.198Z,20.32
2022-08-26T07:41:54.827Z,20.20
2022-08-26T07:44:22.577Z,20.23
2022-08-26T07:46:53.366Z,20.23
2022-08-26T07:49:25.146Z,20.28
2022-08-26T07:51:53.057Z,20.27
2022-08-26T07:54:27.004Z,20.32
2022-08-26T07:56:56.025Z,20.28
2022-08-26T07:59:24.090Z,20.37
2022-08-26T08:01:51.858Z,20.42
2022-08-26T08:04:26.218Z,20.46
2022-08-26T08:06:54.384Z,20.43
2022-08-26T08:09:22.494Z,20.31
2022-08-26T08:11:51.284Z,20.35
2022-08-26T08:14:20.478Z,20.33
2022-08-26T08:16:53.596Z,20.39
2022-08-26T08:19:23.050Z,20.48
2022-08-26T08:21:51.607Z,20.64
2022-08-26T08:24:19.822Z,20.76
2022-08-26T08:26:48.117Z,20.79
2022-08-26T08:29:15.734Z,20.84
2022-08-26T08:31:56.777Z,20.89
2022-08-26T08:34:28.225Z,20.63
2022-08-26T08:36:57.117Z,20.71
2022-08-26T08:39:25.984Z,20.67
2022-08-26T08:42:23.535Z,20.59
2022-08-26T08:44:54.241Z,20.70
2022-08-26T08:47:37.944Z,20.74
2022-08-26T08:50:29.481Z,20.71
2022-08-26T08:53:11.396Z,20.83
2022-08-26T08:56:00.579Z,20.83
2022-08-26T08:59:04.641Z,20.83
2022-08-26T09:02:11.599Z,20.86
2022-08-26T09:05:20.101Z,20.89
2022-08-26T09:07:57.211Z,21.17
2022-08-26T09:10:50.413Z,21.07
2022-08-26T09:13:26.169Z,21.01
2022-08-26T09:16:04.199Z,21.10
2022-08-26T09:18:59.089Z,21.18
2022-08-26T09:21:27.859Z,21.09
2022-08-26T09:23:56.998Z,21.19
2022-08-26T09:26:42.693Z,20.98
2022-08-26T09:31:53.486Z,20.77
2022-08-26T09:34:23.730Z,20.84
2022-08-26T09:36:57.308Z,20.96
2022-08-26T09:39:24.720Z,20.93
2022-08-26T09:42:25.404Z,20.93
2022-08-26T09:44:59.409Z,20.87
2022-08-26T09:47:31.984Z,20.76
2022-08-26T09:50:38.407Z,20.78
2022-08-26T09:53:09.921Z,20.59
2022-08-26T09:55:42.510Z,20.64
2022-08-26T09:58:32.608Z,20.52
2022-08-26T10:01:03.060Z,20.54
2022-08-26T10:03:38.274Z,20.48
2022-08-26T10:06:28.758Z,20.48
2022-08-26T10:08:59.986Z,20.43
2022-08-26T10:11:30.567Z,20.62
2022-08-26T10:14:04.270Z,20.68
2022-08-26T10:16:40.777Z,20.95
2022-08-26T10:19:14.342Z,20.83
2022-08-26T10:22:05.306Z,20.93
2022-08-26T10:24:41.820Z,20.86
2022-08-26T10:27:26.377Z,20.83
2022-08-26T10:30:01.327Z,20.95
2022-08-26T10:32:35.198Z,21.04
2022-08-26T10:35:07.653Z,21.33
2022-08-26T10:37:42.625Z,21.31
2022-08-26T10:40:19.274Z,21.27
2022-08-26T10:42:56.962Z,21.42
2022-08-26T10:45:29.606Z,21.51
2022-08-26T10:48:05.880Z,21.61
2022-08-26T10:50:38.048Z,21.70
2022-08-26T10:53:25.424Z,21.72
2022-08-26T10:56:23.606Z,21.73
2022-08-26T10:59:12.196Z,21.95
2022-08-26T11:01:58.947Z,21.99
2022-08-26T11:04:47.515Z,21.88
2022-08-26T11:07:41.318Z,21.68
2022-08-26T11:10:43.627Z,21.81
2022-08-26T11:13:12.103Z,21.78
2022-08-26T11:15:39.548Z,21.95
2022-08-26T11:18:09.919Z,21.87
2022-08-26T11:20:42.331Z,22.11
2022-08-26T11:23:22.263Z,22.29
2022-08-26T11:26:11.563Z,22.36
2022-08-26T11:28:49.659Z,22.38
2022-08-26T11:31:19.939Z,22.48
2022-08-26T11:33:59.860Z,22.42
2022-08-26T11:36:49.110Z,22.36
2022-08-26T11:39:20.021Z,22.20
2022-08-26T11:41:52.622Z,22.05
2022-08-26T11:44:24.428Z,22.06
2022-08-26T11:46:56.986Z,22.05
2022-08-26T11:49:25.772Z,22.12
2022-08-26T11:51:53.582Z,21.98
2022-08-26T11:54:35.243Z,21.83
2022-08-26T11:57:09.507Z,21.65
2022-08-26T11:59:42.335Z,21.61
2022-08-26T12:02:17.915Z,21.67
2022-08-26T12:04:49.364Z,21.52
2022-08-26T12:07:18.490Z,21.50
2022-08-26T12:10:00.618Z,21.59
2022-08-26T12:12:35.206Z,21.56
2022-08-26T12:15:12.893Z,21.47
2022-08-26T12:17:41.861Z,21.32
2022-08-26T12:20:48.158Z,21.54
2022-08-26T12:23:25.986Z,21.78
2022-08-26T12:26:04.132Z,21.91
2022-08-26T12:28:32.327Z,21.79
2022-08-26T12:31:06.458Z,21.57
2022-08-26T12:33:36.607Z,21.75
2022-08-26T12:36:05.890Z,21.72
2022-08-26T12:38:36.789Z,21.58
2022-08-26T12:41:04.637Z,21.65
2022-08-26T12:43:44.399Z,21.62
2022-08-26T12:46:25.592Z,21.65
2022-08-26T12:48:53.206Z,21.99
2022-08-26T12:51:29.738Z,22.02
2022-08-26T12:53:58.298Z,22.26
2022-08-26T12:56:38.555Z,21.99
2022-08-26T12:59:26.593Z,21.97
2022-08-26T13:01:55.627Z,21.52
2022-08-26T13:04:35.205Z,21.46
2022-08-26T13:07:24.206Z,21.44
2022-08-26T13:09:55.106Z,21.48
2022-08-26T13:12:37.077Z,21.25
2022-08-26T13:15:06.080Z,21.13
2022-08-26T13:17:35.849Z,21.33
2022-08-26T13:20:04.449Z,21.36
2022-08-26T13:22:32.515Z,21.33
2022-08-26T13:25:00.314Z,21.43
2022-08-26T13:27:29.067Z,21.63
2022-08-26T13:29:57.839Z,21.56
2022-08-26T13:32:27.747Z,21.64
2022-08-26T13:34:57.273Z,21.69
2022-08-26T13:37:35.114Z,21.58
2022-08-26T13:40:07.546Z,21.65
2022-08-26T13:42:35.073Z,21.62
2022-08-26T13:45:03.347Z,21.51
2022-08-26T13:47:30.842Z,21.41
2022-08-26T13:49:58.468Z,21.24
2022-08-26T13:52:30.217Z,21.33
2022-08-26T13:55:00.601Z,21.54
2022-08-26T13:57:30.493Z,21.60
2022-08-26T13:59:59.254Z,21.85
2022-08-26T14:02:28.275Z,21.99
2022-08-26T14:04:56.385Z,22.16
2022-08-26T14:07:24.322Z,22.03
2022-08-26T14:09:52.020Z,22.02
2022-08-26T14:12:19.521Z,21.93
2022-08-26T14:14:47.640Z,21.84
2022-08-26T14:17:22.225Z,21.73
2022-08-26T14:19:51.252Z,21.66
2022-08-26T14:22:21.759Z,21.78
2022-08-26T14:24:50.261Z,21.85
2022-08-26T14:27:17.846Z,21.92
2022-08-26T14:29:45.327Z,21.69
2022-08-26T14:32:25.294Z,21.82
2022-08-26T14:34:53.743Z,21.70
2022-08-26T14:37:22.170Z,21.62
2022-08-26T14:39:49.868Z,21.59
2022-08-26T14:42:22.378Z,21.52
2022-08-26T14:44:57.660Z,21.46
2022-08-26T14:47:25.674Z,21.65
2022-08-26T14:49:53.198Z,21.55
2022-08-26T14:52:21.403Z,21.45
2022-08-26T14:54:47.989Z,21.65
2022-08-26T14:57:22.521Z,21.68
2022-08-26T14:59:50.520Z,21.53
2022-08-26T15:02:32.820Z,21.65
2022-08-26T15:05:01.364Z,21.58
2022-08-26T15:07:28.971Z,21.58
2022-08-26T15:09:56.491Z,21.52
2022-08-26T15:12:24.216Z,21.45
2022-08-26T15:14:51.760Z,21.50
2022-08-26T15:17:19.240Z,21.53
2022-08-26T15:19:47.410Z,21.36
2022-08-26T15:22:14.909Z,21.33
2022-08-26T15:24:42.455Z,21.52
2022-08-26T15:27:09.917Z,21.42
2022-08-26T15:29:37.499Z,21.44
2022-08-26T15:32:05.827Z,21.51
2022-08-26T15:34:33.411Z,21.40
2022-08-26T15:37:02.067Z,21.47
2022-08-26T15:39:29.626Z,21.56
2022-08-26T15:41:57.282Z,21.56
2022-08-26T15:44:27.218Z,21.76
2022-08-26T15:46:58.685Z,21.45
2022-08-26T15:49:27.373Z,21.40
2022-08-26T15:51:54.958Z,21.31
2022-08-26T15:54:24.125Z,21.31
2022-08-26T15:56:52.366Z,21.22
2022-08-26T15:59:21.675Z,21.25
2022-08-26T16:01:49.290Z,21.05
2022-08-26T16:04:17.582Z,21.25
2022-08-26T16:06:50.135Z,21.08
2022-08-26T16:09:18.431Z,21.28
2022-08-26T16:11:46.005Z,21.18
2022-08-26T16:14:13.551Z,21.27
2022-08-26T16:16:41.554Z,21.26
2022-08-26T16:19:09.574Z,21.06
2022-08-26T16:21:37.264Z,21.28
2022-08-26T16:24:06.292Z,21.14
2022-08-26T16:26:37.431Z,21.13
2022-08-26T16:29:09.617Z,21.27
2022-08-26T16:31:38.322Z,21.29
2022-08-26T16:34:06.944Z,21.35
2022-08-26T16:36:35.473Z,21.29
2022-08-26T16:39:04.169Z,21.40
2022-08-26T16:41:32.829Z,21.51
2022-08-26T16:44:00.365Z,21.51
2022-08-26T16:46:29.225Z,21.74
2022-08-26T16:48:58.314Z,21.54
2022-08-26T16:51:28.458Z,21.58
2022-08-26T16:53:57.678Z,21.45
2022-08-26T16:56:30.640Z,21.39
2022-08-26T16:59:01.938Z,21.14
2022-08-26T17:01:29.575Z,21.11
2022-08-26T17:03:57.131Z,21.11
2022-08-26T17:06:24.748Z,21.04
2022-08-26T17:08:53.065Z,20.92
2022-08-26T17:11:20.681Z,20.90
2022-08-26T17:13:48.165Z,20.68
2022-08-26T17:16:16.047Z,20.61
2022-08-26T17:18:43.631Z,20.49
2022-08-26T17:21:13.383Z,20.47
2022-08-26T17:23:42.645Z,20.62
2022-08-26T17:26:11.997Z,20.55
2022-08-26T17:28:40.235Z,20.43
2022-08-26T17:31:09.210Z,20.35
2022-08-26T17:33:37.118Z,20.43
2022-08-26T17:36:07.662Z,20.36
2022-08-26T17:38:37.681Z,20.35
2022-08-26T17:41:12.499Z,20.31
2022-08-26T17:43:41.572Z,20.35
2022-08-26T17:46:11.472Z,20.25
2022-08-26T17:48:40.453Z,20.16
2022-08-26T17:51:13.369Z,20.04
2022-08-26T17:53:42.453Z,19.99
2022-08-26T17:56:13.059Z,20.04
2022-08-26T17:58:41.414Z,20.05
2022-08-26T18:01:18.905Z,20.04
2022-08-26T18:03:46.651Z,20.03
2022-08-26T18:06:15.191Z,20.00
2022-08-26T18:08:43.952Z,19.92
2022-08-26T18:11:17.452Z,19.82
2022-08-26T18:13:47.333Z,19.80
2022-08-26T18:16:16.180Z,19.87
2022-08-26T18:18:43.830Z,19.79
2022-08-26T18:21:19.565Z,19.72
2022-08-26T18:23:48.542Z,19.77
2022-08-26T18:26:21.845Z,19.76
2022-08-26T18:28:49.691Z,19.67
2022-08-26T18:31:17.235Z,19.64
2022-08-26T18:33:45.714Z,19.58
2022-08-26T18:36:21.618Z,19.57
2022-08-26T18:38:50.700Z,19.60
2022-08-26T18:41:20.606Z,19.47
2022-08-26T18:43:50.355Z,19.51
2022-08-26T18:46:19.369Z,19.46
2022-08-26T18:48:49.101Z,19.47
2022-08-26T18:51:21.728Z,19.48
2022-08-26T18:53:49.373Z,19.40
2022-08-26T18:56:18.648Z,19.41
2022-08-26T18:58:46.399Z,19.31
2022-08-26T19:01:14.956Z,19.22
2022-08-26T19:03:43.018Z,19.09
2022-08-26T19:06:15.184Z,19.14
2022-08-26T19:08:44.597Z,19.05
2022-08-26T19:11:13.978Z,19.13
2022-08-26T19:13:42.916Z,19.07
2022-08-26T19:16:22.465Z,19.06
2022-08-26T19:18:52.443Z,19.04
2022-08-26T19:21:21.802Z,18.96
2022-08-26T19:23:50.063Z,18.92
2022-08-26T19:26:18.487Z,18.84
2022-08-26T19:28:46.043Z,18.72
2022-08-26T19:31:13.818Z,18.75
2022-08-26T19:33:43.010Z,18.75
2022-08-26T19:36:15.588Z,18.41
2022-08-26T19:38:43.237Z,18.74
2022-08-26T19:41:19.908Z,18.64
2022-08-26T19:43:47.916Z,18.60
2022-08-26T19:46:18.280Z,18.51
2022-08-26T19:48:46.684Z,18.47
2022-08-26T19:51:20.064Z,18.39
2022-08-26T19:53:49.525Z,18.32
2022-08-26T19:56:17.579Z,18.27
2022-08-26T19:58:45.491Z,18.22
2022-08-26T20:01:14.927Z,18.13
2022-08-26T20:03:43.483Z,18.03
2022-08-26T20:06:12.998Z,17.99
2022-08-26T20:08:42.525Z,17.90
2022-08-26T20:11:15.154Z,17.88
2022-08-26T20:13:43.846Z,17.71
2022-08-26T20:16:12.239Z,17.70
2022-08-26T20:18:59.340Z,17.61
2022-08-26T20:21:27.349Z,17.57
2022-08-26T20:24:00.574Z,17.55
2022-08-26T20:26:29.723Z,17.53
2022-08-26T20:28:58.518Z,17.40
2022-08-26T20:31:27.567Z,17.42
2022-08-26T20:33:55.364Z,17.38
2022-08-26T20:36:26.894Z,17.09
2022-08-26T20:38:55.364Z,17.30
2022-08-26T20:41:25.309Z,17.24
2022-08-26T20:43:54.182Z,17.23
2022-08-26T20:46:24.673Z,17.20
2022-08-26T20:48:53.375Z,17.14
2022-08-26T20:51:22.902Z,17.05
2022-08-26T20:53:51.334Z,17.11
2022-08-26T20:56:23.750Z,17.06
2022-08-26T20:58:54.238Z,17.04
2022-08-26T21:01:25.378Z,16.98
2022-08-26T21:03:54.511Z,16.98
2022-08-26T21:06:22.484Z,16.95
2022-08-26T21:08:50.823Z,16.91
2022-08-26T21:11:19.047Z,16.90
2022-08-26T21:14:04.371Z,16.86
2022-08-26T21:16:36.624Z,16.79
2022-08-26T21:19:10.613Z,16.71
2022-08-26T21:21:38.822Z,16.78
2022-08-26T21:24:06.955Z,16.71
2022-08-26T21:26:34.549Z,16.72
2022-08-26T21:29:03.111Z,16.69
2022-08-26T21:31:31.958Z,16.67
2022-08-26T21:34:00.294Z,16.64
2022-08-26T21:36:28.336Z,16.59
2022-08-26T21:38:57.971Z,16.58
2022-08-26T21:41:26.623Z,16.55
2022-08-26T21:43:58.909Z,16.51
2022-08-26T21:46:29.203Z,16.54
2022-08-26T21:48:58.975Z,16.55
2022-08-26T21:51:29.889Z,16.53
2022-08-26T21:53:59.062Z,16.54
2022-08-26T21:56:28.726Z,16.51
2022-08-26T21:58:57.512Z,16.53
2022-08-26T22:01:27.432Z,16.49
2022-08-26T22:03:55.298Z,16.55
2022-08-26T22:06:25.577Z,16.55
2022-08-26T22:08:54.149Z,16.58
2022-08-26T22:11:21.858Z,16.61
2022-08-26T22:13:50.281Z,16.62
2022-08-26T22:16:19.076Z,16.64
2022-08-26T22:18:47.073Z,16.65
2022-08-26T22:21:18.711Z,16.62
2022-08-26T22:23:46.946Z,16.62
2022-08-26T22:26:25.565Z,16.59
2022-08-26T22:28:58.417Z,16.52
2022-08-26T22:31:37.692Z,16.54
2022-08-26T22:34:11.495Z,16.54
2022-08-26T22:36:43.936Z,16.50
2022-08-26T22:39:13.745Z,16.50
2022-08-26T22:41:43.185Z,16.53
2022-08-26T22:44:11.643Z,16.53
2022-08-26T22:46:39.775Z,16.52
2022-08-26T22:49:10.124Z,16.54
2022-08-26T22:51:37.743Z,16.52
2022-08-26T22:54:06.209Z,16.52
2022-08-26T22:56:33.755Z,16.55
2022-08-26T22:59:01.252Z,16.56
2022-08-26T23:01:29.042Z,16.59
2022-08-26T23:03:56.569Z,16.63
2022-08-26T23:06:24.146Z,16.67
2022-08-26T23:08:53.029Z,16.68
2022-08-26T23:11:20.477Z,16.75
2022-08-26T23:13:48.048Z,16.75
2022-08-26T23:16:15.571Z,16.83
2022-08-26T23:18:44.201Z,16.80
2022-08-26T23:21:11.871Z,16.84
2022-08-26T23:23:39.381Z,16.89
2022-08-26T23:26:08.175Z,16.94
2022-08-26T23:28:37.718Z,16.91
2022-08-26T23:31:06.288Z,16.99
2022-08-26T23:33:47.703Z,17.01
2022-08-26T23:36:17.971Z,17.04
2022-08-26T23:38:52.932Z,17.06
2022-08-26T23:41:24.398Z,17.07
2022-08-26T23:43:52.686Z,17.10
2022-08-26T23:46:21.043Z,17.09
2022-08-26T23:48:49.006Z,17.00
2022-08-26T23:51:34.506Z,17.03
2022-08-26T23:54:01.979Z,17.09
2022-08-26T23:56:29.710Z,17.04
2022-08-26T23:58:57.387Z,17.00
